createdAt,value
2023-05-08T00:02:10.191Z,37.55
2023-05-08T00:04:37.323Z,37.20
2023-05-08T00:07:04.237Z,35.85
2023-05-08T00:09:31.100Z,36.50
2023-05-08T00:11:58.037Z,35.20
2023-05-08T00:14:24.824Z,32.60
2023-05-08T00:16:51.738Z,38.50
2023-05-08T00:19:18.640Z,38.92
2023-05-08T00:21:45.602Z,37.05
2023-05-08T00:24:12.454Z,37.80
2023-05-08T00:26:39.391Z,40.75
2023-05-08T00:29:06.897Z,44.05
2023-05-08T00:31:34.071Z,39.63
2023-05-08T00:34:00.955Z,39.08
2023-05-08T00:36:28.364Z,33.92
2023-05-08T00:38:55.237Z,32.92
2023-05-08T00:41:22.723Z,29.88
2023-05-08T00:43:49.593Z,28.50
2023-05-08T00:46:16.714Z,26.33
2023-05-08T00:48:45.217Z,25.38
2023-05-08T00:51:12.549Z,24.55
2023-05-08T00:53:43.600Z,24.02
2023-05-08T00:56:12.787Z,22.25
2023-05-08T00:58:41.052Z,22.50
2023-05-08T01:01:08.332Z,21.33
2023-05-08T01:03:36.507Z,21.08
2023-05-08T01:06:04.340Z,20.17
2023-05-08T01:08:31.911Z,20.85
2023-05-08T01:11:17.253Z,19.45
2023-05-08T01:14:15.309Z,19.45
2023-05-08T01:17:03.523Z,19.40
2023-05-08T01:19:49.236Z,19.17
2023-05-08T01:22:36.379Z,20.10
2023-05-08T01:25:46.398Z,21.95
2023-05-08T01:28:44.522Z,21.35
2023-05-08T01:31:30.674Z,20.30
2023-05-08T01:34:06.479Z,22.67
2023-05-08T01:36:52.037Z,26.60
2023-05-08T01:39:40.055Z,31.40
2023-05-08T01:42:28.852Z,32.75
2023-05-08T01:45:05.248Z,32.78
2023-05-08T01:47:37.169Z,33.60
2023-05-08T01:50:11.877Z,32.88
2023-05-08T01:53:00.460Z,34.35
2023-05-08T01:55:34.103Z,35.65
2023-05-08T01:58:06.344Z,36.17
2023-05-08T02:00:33.427Z,37.42
2023-05-08T02:03:00.981Z,35.25
2023-05-08T02:05:28.745Z,36.75
2023-05-08T02:07:56.648Z,34.40
2023-05-08T02:10:27.412Z,36.05
2023-05-08T02:12:55.923Z,35.53
2023-05-08T02:15:24.853Z,34.13
2023-05-08T02:17:54.319Z,34.97
2023-05-08T02:20:22.291Z,35.35
2023-05-08T02:22:51.571Z,34.88
2023-05-08T02:25:19.637Z,37.20
2023-05-08T02:27:49.547Z,37.97
2023-05-08T02:30:18.602Z,35.22
2023-05-08T02:32:47.840Z,34.78
2023-05-08T02:35:18.334Z,36.30
2023-05-08T02:37:48.979Z,36.25
2023-05-08T02:40:17.979Z,35.97
2023-05-08T02:45:29.408Z,37.03
2023-05-08T02:48:22.417Z,36.78
2023-05-08T02:50:59.290Z,37.30
2023-05-08T02:53:34.574Z,38.53
2023-05-08T02:56:18.871Z,39.40
2023-05-08T02:58:53.674Z,37.65
2023-05-08T03:01:31.869Z,38.35
2023-05-08T03:04:09.262Z,37.78
2023-05-08T03:06:41.583Z,38.95
2023-05-08T03:09:16.629Z,39.63
2023-05-08T03:11:47.627Z,39.95
2023-05-08T03:14:18.552Z,35.75
2023-05-08T03:16:47.668Z,36.85
2023-05-08T03:19:23.456Z,41.22
2023-05-08T03:21:53.256Z,39.05
2023-05-08T03:24:22.733Z,38.88
2023-05-08T03:26:49.970Z,35.60
2023-05-08T03:29:18.543Z,34.60
2023-05-08T03:31:47.646Z,33.03
2023-05-08T03:34:16.292Z,34.83
2023-05-08T03:36:43.295Z,32.22
2023-05-08T03:39:10.457Z,34.83
2023-05-08T03:41:37.290Z,33.08
2023-05-08T03:44:05.244Z,35.58
2023-05-08T03:46:33.077Z,37.65
2023-05-08T03:49:03.356Z,37.38
2023-05-08T03:51:32.479Z,36.45
2023-05-08T03:53:59.383Z,33.72
2023-05-08T03:56:27.742Z,32.28
2023-05-08T03:59:02.153Z,30.20
2023-05-08T04:01:48.771Z,31.95
2023-05-08T04:04:24.462Z,33.30
2023-05-08T04:07:01.186Z,34.10
2023-05-08T04:09:44.487Z,32.90
2023-05-08T04:12:14.425Z,32.35
2023-05-08T04:14:47.943Z,31.75
2023-05-08T04:17:22.323Z,31.45
2023-05-08T04:19:55.829Z,29.88
2023-05-08T04:22:26.577Z,31.27
2023-05-08T04:24:56.104Z,34.17
2023-05-08T04:27:24.174Z,33.28
2023-05-08T04:29:51.397Z,32.60
2023-05-08T04:32:18.795Z,32.13
2023-05-08T04:34:45.825Z,33.42
2023-05-08T04:37:27.971Z,34.25
2023-05-08T04:39:57.857Z,32.53
2023-05-08T04:42:26.428Z,31.95
2023-05-08T04:44:55.491Z,33.53
2023-05-08T04:47:24.193Z,33.90
2023-05-08T04:49:52.004Z,31.27
2023-05-08T04:52:19.318Z,35.75
2023-05-08T04:54:46.309Z,35.95
2023-05-08T04:57:14.088Z,36.45
2023-05-08T04:59:41.346Z,32.17
2023-05-08T05:02:09.356Z,36.17
2023-05-08T05:04:37.022Z,35.30
2023-05-08T05:07:05.350Z,35.00
2023-05-08T05:09:36.980Z,36.20
2023-05-08T05:12:05.300Z,35.72
2023-05-08T05:14:33.603Z,35.53
2023-05-08T05:17:00.651Z,33.10
2023-05-08T05:19:27.733Z,33.72
2023-05-08T05:21:54.821Z,36.70
2023-05-08T05:24:21.775Z,36.03
2023-05-08T05:26:48.792Z,35.28
2023-05-08T05:29:16.180Z,37.78
2023-05-08T05:31:43.431Z,35.40
2023-05-08T05:34:10.749Z,35.80
2023-05-08T05:36:37.946Z,33.88
2023-05-08T05:39:04.878Z,34.38
2023-05-08T05:41:33.052Z,33.30
2023-05-08T05:44:00.230Z,33.13
2023-05-08T05:46:32.419Z,33.65
2023-05-08T05:49:01.699Z,32.20
2023-05-08T05:51:29.295Z,33.30
2023-05-08T05:53:57.236Z,32.65
2023-05-08T05:56:25.540Z,33.97
2023-05-08T05:58:52.786Z,33.80
2023-05-08T06:01:19.963Z,33.08
2023-05-08T06:03:47.475Z,31.90
2023-05-08T06:06:14.496Z,29.55
2023-05-08T06:08:41.611Z,30.65
2023-05-08T06:11:08.785Z,29.83
2023-05-08T06:13:35.907Z,30.13
2023-05-08T06:16:03.251Z,29.48
2023-05-08T06:18:30.845Z,30.08
2023-05-08T06:20:58.549Z,29.80
2023-05-08T06:23:26.317Z,27.73
2023-05-08T06:25:54.108Z,27.13
2023-05-08T06:28:22.620Z,27.25
2023-05-08T06:30:49.736Z,28.30
2023-05-08T06:33:16.718Z,28.13
2023-05-08T06:35:49.499Z,25.90
2023-05-08T06:38:16.532Z,25.52
2023-05-08T06:40:44.359Z,27.13
2023-05-08T06:43:12.317Z,24.88
2023-05-08T06:45:40.052Z,27.08
2023-05-08T06:48:07.471Z,25.67
2023-05-08T06:50:34.474Z,25.00
2023-05-08T06:53:01.422Z,25.88
2023-05-08T06:55:28.318Z,25.10
2023-05-08T06:57:55.416Z,24.08
2023-05-08T07:00:22.388Z,22.75
2023-05-08T07:02:49.293Z,23.60
2023-05-08T07:05:16.553Z,22.13
2023-05-08T07:07:43.882Z,23.20
2023-05-08T07:10:11.105Z,22.30
2023-05-08T07:12:38.281Z,23.98
2023-05-08T07:15:17.777Z,22.30
2023-05-08T07:17:52.121Z,24.13
2023-05-08T07:20:19.001Z,23.05
2023-05-08T07:22:46.548Z,20.98
2023-05-08T07:25:13.626Z,23.45
2023-05-08T07:27:40.877Z,22.75
2023-05-08T07:30:08.483Z,21.92
2023-05-08T07:32:35.953Z,21.65
2023-05-08T07:35:03.743Z,23.35
2023-05-08T07:37:30.779Z,21.27
2023-05-08T07:39:57.766Z,22.70
2023-05-08T07:42:24.774Z,20.50
2023-05-08T07:44:54.792Z,20.55
2023-05-08T07:47:22.546Z,19.55
2023-05-08T07:49:49.584Z,19.73
2023-05-08T07:52:16.804Z,19.73
2023-05-08T07:54:43.962Z,18.48
2023-05-08T07:57:11.654Z,19.95
2023-05-08T07:59:38.602Z,21.92
2023-05-08T08:02:05.665Z,19.67
2023-05-08T08:04:32.719Z,19.45
2023-05-08T08:07:00.778Z,17.52
2023-05-08T08:09:27.761Z,19.63
2023-05-08T08:11:54.700Z,19.65
2023-05-08T08:14:21.496Z,20.35
2023-05-08T08:16:48.561Z,20.33
2023-05-08T08:19:15.386Z,20.33
2023-05-08T08:21:43.598Z,20.10
2023-05-08T08:24:10.685Z,21.15
2023-05-08T08:26:37.631Z,19.83
2023-05-08T08:29:04.699Z,18.60
2023-05-08T08:31:31.686Z,17.92
2023-05-08T08:33:58.533Z,16.38
2023-05-08T08:36:25.622Z,17.52
2023-05-08T08:38:53.252Z,16.48
2023-05-08T08:41:21.235Z,17.17
2023-05-08T08:43:48.120Z,16.27
2023-05-08T08:46:15.472Z,15.20
2023-05-08T08:48:47.279Z,16.27
2023-05-08T08:51:32.162Z,16.33
2023-05-08T08:54:11.559Z,16.77
2023-05-08T08:56:40.759Z,16.42
2023-05-08T08:59:08.884Z,16.98
2023-05-08T09:01:39.693Z,16.92
2023-05-08T09:04:07.282Z,17.33
2023-05-08T09:06:38.400Z,17.73
2023-05-08T09:09:05.844Z,16.45
2023-05-08T09:11:32.908Z,15.40
2023-05-08T09:13:59.876Z,15.30
2023-05-08T09:16:28.425Z,15.68
2023-05-08T09:18:55.602Z,16.90
2023-05-08T09:21:23.307Z,16.45
2023-05-08T09:23:57.283Z,18.00
2023-05-08T09:26:28.698Z,18.13
2023-05-08T09:29:19.924Z,16.77
2023-05-08T09:31:53.685Z,16.65
2023-05-08T09:34:24.969Z,16.85
2023-05-08T09:36:51.933Z,15.45
2023-05-08T09:39:24.731Z,16.20
2023-05-08T09:42:02.466Z,15.50
2023-05-08T09:44:43.117Z,15.77
2023-05-08T09:47:12.088Z,14.88
2023-05-08T09:49:40.554Z,17.05
2023-05-08T09:52:08.594Z,15.85
2023-05-08T09:54:35.568Z,16.38
2023-05-08T09:57:12.295Z,16.65
2023-05-08T09:59:39.206Z,17.52
2023-05-08T10:02:12.917Z,16.30
2023-05-08T10:04:39.861Z,16.85
2023-05-08T10:07:06.713Z,16.08
2023-05-08T10:09:46.765Z,16.60
2023-05-08T10:12:17.014Z,18.25
2023-05-08T10:14:46.520Z,17.52
2023-05-08T10:17:16.899Z,17.85
2023-05-08T10:19:48.443Z,18.05
2023-05-08T10:22:18.437Z,17.92
2023-05-08T10:24:50.065Z,17.25
2023-05-08T10:27:27.919Z,17.45
2023-05-08T10:29:57.739Z,17.40
2023-05-08T10:32:25.928Z,18.80
2023-05-08T10:34:56.337Z,18.77
2023-05-08T10:37:23.251Z,18.35
2023-05-08T10:39:51.982Z,17.98
2023-05-08T10:42:19.756Z,19.27
2023-05-08T10:44:47.028Z,18.58
2023-05-08T10:47:28.083Z,19.75
2023-05-08T10:50:10.060Z,18.48
2023-05-08T10:52:47.747Z,19.33
2023-05-08T10:55:24.134Z,19.67
2023-05-08T10:58:05.058Z,22.00
2023-05-08T11:00:54.023Z,22.50
2023-05-08T11:03:31.256Z,21.70
2023-05-08T11:06:00.929Z,22.20
2023-05-08T11:08:30.474Z,21.05
2023-05-08T11:11:00.558Z,21.58
2023-05-08T11:13:37.228Z,21.98
2023-05-08T11:16:06.644Z,23.80
2023-05-08T11:21:14.445Z,21.75
2023-05-08T11:23:41.495Z,22.92
2023-05-08T11:26:11.447Z,22.27
2023-05-08T11:28:56.992Z,20.55
2023-05-08T11:31:24.534Z,19.63
2023-05-08T11:33:51.362Z,19.55
2023-05-08T11:36:25.475Z,19.38
2023-05-08T11:39:07.908Z,19.83
2023-05-08T11:41:35.088Z,18.92
2023-05-08T11:44:05.096Z,19.88
2023-05-08T11:46:38.929Z,19.70
2023-05-08T11:49:06.964Z,19.85
2023-05-08T11:51:33.922Z,19.27
2023-05-08T11:54:02.390Z,18.40
2023-05-08T11:56:30.665Z,19.10
2023-05-08T11:59:08.891Z,19.48
2023-05-08T12:01:36.757Z,18.67
2023-05-08T12:04:12.143Z,19.15
2023-05-08T12:06:41.491Z,18.88
2023-05-08T12:09:14.056Z,19.02
2023-05-08T12:11:43.710Z,20.33
2023-05-08T12:14:17.070Z,21.35
2023-05-08T12:16:44.209Z,21.80
2023-05-08T12:19:12.520Z,21.70
2023-05-08T12:21:45.490Z,22.13
2023-05-08T12:24:13.442Z,22.85
2023-05-08T12:26:40.414Z,23.65
2023-05-08T12:29:08.622Z,21.15
2023-05-08T12:31:38.668Z,19.40
2023-05-08T12:34:06.678Z,18.92
2023-05-08T12:36:36.981Z,19.05
2023-05-08T12:39:17.998Z,19.23
2023-05-08T12:41:48.912Z,18.30
2023-05-08T12:44:26.769Z,18.77
2023-05-08T12:46:56.300Z,17.67
2023-05-08T12:49:28.856Z,15.75
2023-05-08T12:52:12.341Z,16.35
2023-05-08T12:54:43.685Z,14.23
2023-05-08T12:57:15.151Z,13.73
2023-05-08T12:59:43.775Z,13.25
2023-05-08T13:02:18.053Z,14.15
2023-05-08T13:04:46.028Z,15.23
2023-05-08T13:07:13.250Z,13.85
2023-05-08T13:09:40.596Z,13.38
2023-05-08T13:12:07.758Z,13.93
2023-05-08T13:14:34.724Z,10.77
2023-05-08T13:17:01.878Z,10.15
2023-05-08T13:19:29.008Z,7.38
2023-05-08T13:21:55.902Z,7.00
2023-05-08T13:24:22.980Z,7.15
2023-05-08T13:26:49.838Z,6.32
2023-05-08T13:29:17.159Z,5.70
2023-05-08T13:31:44.145Z,5.40
2023-05-08T13:34:11.112Z,4.10
2023-05-08T13:36:37.967Z,4.03
2023-05-08T13:39:05.587Z,4.25
2023-05-08T13:41:32.381Z,3.97
2023-05-08T13:43:59.280Z,4.13
2023-05-08T13:46:26.209Z,3.67
2023-05-08T13:48:53.249Z,3.72
2023-05-08T13:51:20.123Z,3.30
2023-05-08T13:53:47.066Z,3.78
2023-05-08T13:56:13.967Z,3.55
2023-05-08T13:58:41.000Z,3.33
2023-05-08T14:01:21.921Z,3.95
2023-05-08T14:03:49.468Z,3.78
2023-05-08T14:06:16.410Z,2.80
2023-05-08T14:08:46.587Z,3.00
2023-05-08T14:11:14.789Z,3.70
2023-05-08T14:13:44.262Z,2.72
2023-05-08T14:16:12.962Z,3.08
2023-05-08T14:18:40.340Z,2.97
2023-05-08T14:21:08.125Z,3.20
2023-05-08T14:23:36.019Z,3.60
2023-05-08T14:26:03.086Z,3.28
2023-05-08T14:28:29.946Z,3.55
2023-05-08T14:30:56.994Z,3.38
2023-05-08T14:33:23.964Z,2.90
2023-05-08T14:35:50.824Z,3.00
2023-05-08T14:38:17.634Z,2.95
2023-05-08T14:40:44.581Z,3.28
2023-05-08T14:43:11.408Z,2.70
2023-05-08T14:45:38.275Z,3.17
2023-05-08T14:48:06.146Z,3.00
2023-05-08T14:50:33.108Z,3.00
2023-05-08T14:53:00.165Z,2.97
2023-05-08T14:55:27.268Z,3.33
2023-05-08T14:57:54.355Z,2.85
2023-05-08T15:00:21.453Z,3.22
2023-05-08T15:02:48.704Z,2.95
2023-05-08T15:08:02.988Z,3.50
2023-05-08T15:10:29.908Z,3.17
2023-05-08T15:12:56.786Z,3.17
2023-05-08T15:15:23.665Z,3.20
2023-05-08T15:17:50.649Z,2.78
2023-05-08T15:20:17.538Z,3.42
2023-05-08T15:22:44.562Z,3.63
2023-05-08T15:25:11.917Z,2.92
2023-05-08T15:27:39.175Z,3.72
2023-05-08T15:30:06.895Z,3.30
2023-05-08T15:32:34.933Z,3.25
2023-05-08T15:35:01.940Z,2.80
2023-05-08T15:37:28.874Z,3.30
2023-05-08T15:39:56.521Z,3.70
2023-05-08T15:42:23.399Z,4.05
2023-05-08T15:44:54.925Z,3.95
2023-05-08T15:47:23.282Z,4.75
2023-05-08T15:49:51.120Z,4.68
2023-05-08T15:52:19.676Z,4.28
2023-05-08T15:54:47.183Z,16.30
2023-05-08T15:57:14.543Z,5.40
2023-05-08T15:59:44.423Z,6.13
2023-05-08T16:02:11.588Z,4.97
2023-05-08T16:04:38.435Z,4.63
2023-05-08T16:07:05.352Z,3.60
2023-05-08T16:09:32.349Z,3.90
2023-05-08T16:11:59.246Z,3.80
2023-05-08T16:14:26.126Z,3.92
2023-05-08T16:16:53.138Z,4.85
2023-05-08T16:19:20.038Z,4.50
2023-05-08T16:21:49.753Z,4.25
2023-05-08T16:24:16.643Z,3.45
2023-05-08T16:26:43.543Z,3.80
2023-05-08T16:29:10.398Z,3.20
2023-05-08T16:31:37.606Z,4.05
2023-05-08T16:34:04.567Z,3.45
2023-05-08T16:36:31.820Z,3.85
2023-05-08T16:38:58.810Z,4.30
2023-05-08T16:41:26.866Z,3.85
2023-05-08T16:43:53.834Z,3.88
2023-05-08T16:46:29.211Z,4.60
2023-05-08T16:48:57.240Z,4.70
2023-05-08T16:51:24.186Z,4.30
2023-05-08T16:53:51.060Z,4.45
2023-05-08T16:56:18.152Z,4.18
2023-05-08T16:58:45.130Z,3.80
2023-05-08T17:01:12.943Z,4.10
2023-05-08T17:03:39.866Z,4.45
2023-05-08T17:06:10.069Z,4.57
2023-05-08T17:08:37.001Z,4.60
2023-05-08T17:11:03.890Z,4.60
2023-05-08T17:13:30.908Z,4.05
2023-05-08T17:15:58.192Z,4.22
2023-05-08T17:18:25.839Z,4.88
2023-05-08T17:20:52.737Z,4.75
2023-05-08T17:23:19.660Z,3.75
2023-05-08T17:25:46.482Z,4.40
2023-05-08T17:28:13.341Z,5.00
2023-05-08T17:30:40.221Z,4.70
2023-05-08T17:33:07.351Z,4.90
2023-05-08T17:35:34.331Z,5.53
2023-05-08T17:38:01.308Z,5.10
2023-05-08T17:40:28.856Z,5.07
2023-05-08T17:42:55.910Z,5.65
2023-05-08T17:45:22.794Z,5.40
2023-05-08T17:47:49.772Z,5.07
2023-05-08T17:50:16.867Z,5.65
2023-05-08T17:52:43.826Z,5.40
2023-05-08T17:55:10.850Z,5.65
2023-05-08T17:57:37.770Z,5.32
2023-05-08T18:00:06.155Z,6.05
2023-05-08T18:02:35.443Z,5.85
2023-05-08T18:05:02.608Z,5.13
2023-05-08T18:07:29.508Z,5.30
2023-05-08T18:09:56.418Z,5.53
2023-05-08T18:12:23.411Z,5.90
2023-05-08T18:14:50.239Z,5.55
2023-05-08T18:17:19.480Z,6.32
2023-05-08T18:19:46.728Z,5.55
2023-05-08T18:22:13.678Z,4.93
2023-05-08T18:24:40.658Z,5.35
2023-05-08T18:27:07.627Z,4.85
2023-05-08T18:29:34.484Z,5.60
2023-05-08T18:32:01.360Z,5.68
2023-05-08T18:34:28.184Z,5.55
2023-05-08T18:36:56.806Z,5.15
2023-05-08T18:39:25.056Z,5.80
2023-05-08T18:41:51.950Z,6.25
2023-05-08T18:44:18.863Z,5.60
2023-05-08T18:46:45.814Z,5.90
2023-05-08T18:49:12.868Z,5.57
2023-05-08T18:51:39.658Z,6.07
2023-05-08T18:54:06.588Z,6.28
2023-05-08T18:56:34.342Z,6.50
2023-05-08T18:59:01.443Z,6.10
2023-05-08T19:01:28.359Z,6.45
2023-05-08T19:03:55.469Z,7.05
2023-05-08T19:06:22.380Z,7.00
2023-05-08T19:08:49.581Z,7.47
2023-05-08T19:11:17.096Z,7.53
2023-05-08T19:13:43.988Z,7.43
2023-05-08T19:16:10.862Z,6.45
2023-05-08T19:18:37.771Z,7.60
2023-05-08T19:21:04.837Z,7.18
2023-05-08T19:23:31.778Z,8.10
2023-05-08T19:25:58.674Z,7.95
2023-05-08T19:28:25.622Z,7.47
2023-05-08T19:30:52.426Z,7.97
2023-05-08T19:33:20.832Z,7.95
2023-05-08T19:35:48.559Z,7.53
2023-05-08T19:38:15.645Z,7.75
2023-05-08T19:40:55.721Z,7.40
2023-05-08T19:43:24.425Z,7.75
2023-05-08T19:45:51.328Z,8.30
2023-05-08T19:48:20.029Z,8.18
2023-05-08T19:50:47.144Z,9.05
2023-05-08T19:53:14.200Z,8.52
2023-05-08T19:55:41.085Z,8.43
2023-05-08T19:58:07.960Z,8.32
2023-05-08T20:00:35.367Z,8.38
2023-05-08T20:03:02.570Z,8.88
2023-05-08T20:05:29.524Z,9.77
2023-05-08T20:07:56.585Z,9.75
2023-05-08T20:10:23.560Z,9.23
2023-05-08T20:12:50.574Z,9.30
2023-05-08T20:15:17.490Z,9.88
2023-05-08T20:17:44.357Z,10.63
2023-05-08T20:20:11.875Z,10.38
2023-05-08T20:22:38.970Z,11.77
2023-05-08T20:25:06.256Z,12.18
2023-05-08T20:27:33.121Z,12.48
2023-05-08T20:30:00.103Z,11.05
2023-05-08T20:32:27.138Z,12.18
2023-05-08T20:34:53.976Z,12.35
2023-05-08T20:37:20.885Z,14.07
2023-05-08T20:39:47.696Z,12.80
2023-05-08T20:42:14.586Z,12.90
2023-05-08T20:44:41.605Z,13.23
2023-05-08T20:47:08.451Z,13.13
2023-05-08T20:49:35.320Z,13.02
2023-05-08T20:52:02.636Z,12.70
2023-05-08T20:54:30.024Z,12.98
2023-05-08T20:56:57.029Z,13.65
2023-05-08T20:59:23.891Z,13.43
2023-05-08T21:01:51.077Z,13.57
2023-05-08T21:04:17.979Z,14.23
2023-05-08T21:06:44.890Z,14.02
2023-05-08T21:09:11.821Z,13.35
2023-05-08T21:11:38.762Z,13.95
2023-05-08T21:14:05.641Z,13.95
2023-05-08T21:16:32.489Z,14.38
2023-05-08T21:18:59.311Z,14.23
2023-05-08T21:21:26.261Z,15.57
2023-05-08T21:23:53.401Z,15.32
2023-05-08T21:26:23.438Z,15.43
2023-05-08T21:28:52.587Z,14.60
2023-05-08T21:31:19.823Z,15.02
2023-05-08T21:33:46.789Z,15.23
2023-05-08T21:36:14.312Z,15.80
2023-05-08T21:38:41.686Z,14.60
2023-05-08T21:41:08.724Z,14.48
2023-05-08T21:43:36.118Z,14.70
2023-05-08T21:46:07.284Z,15.30
2023-05-08T21:48:34.450Z,13.82
2023-05-08T21:51:01.561Z,13.63
2023-05-08T21:53:28.828Z,15.95
2023-05-08T21:55:55.620Z,14.43
2023-05-08T21:58:22.622Z,14.43
2023-05-08T22:00:49.424Z,14.77
2023-05-08T22:03:16.453Z,15.15
2023-05-08T22:05:43.437Z,14.50
2023-05-08T22:08:10.635Z,15.13
2023-05-08T22:10:37.548Z,15.10
2023-05-08T22:13:06.329Z,15.25
2023-05-08T22:15:33.516Z,16.17
2023-05-08T22:18:02.674Z,15.77
2023-05-08T22:20:30.125Z,15.15
2023-05-08T22:22:57.041Z,15.82
2023-05-08T22:25:25.239Z,14.93
2023-05-08T22:27:52.298Z,15.63
2023-05-08T22:30:19.172Z,15.48
2023-05-08T22:32:54.473Z,14.63
2023-05-08T22:35:24.477Z,14.85
2023-05-08T22:37:52.458Z,15.38
2023-05-08T22:40:21.653Z,15.20
2023-05-08T22:42:51.228Z,15.52
2023-05-08T22:45:18.452Z,16.15
2023-05-08T22:47:46.102Z,15.35
2023-05-08T22:50:13.049Z,15.00
2023-05-08T22:52:40.114Z,15.80
2023-05-08T22:55:07.825Z,15.70
2023-05-08T22:57:34.676Z,15.32
2023-05-08T23:00:01.816Z,15.27
2023-05-08T23:02:33.202Z,15.68
2023-05-08T23:05:00.557Z,15.38
2023-05-08T23:07:28.423Z,15.65
2023-05-08T23:09:55.525Z,15.77
2023-05-08T23:12:22.328Z,16.92
2023-05-08T23:14:49.187Z,16.38
2023-05-08T23:17:16.095Z,16.77
2023-05-08T23:19:43.069Z,17.20
2023-05-08T23:22:10.287Z,19.30
2023-05-08T23:24:37.559Z,16.65
2023-05-08T23:27:04.436Z,18.33
2023-05-08T23:29:31.300Z,19.85
2023-05-08T23:31:58.127Z,20.60
2023-05-08T23:34:25.096Z,20.65
2023-05-08T23:36:51.941Z,20.80
2023-05-08T23:39:18.933Z,20.40
2023-05-08T23:41:45.758Z,20.70
2023-05-08T23:44:12.685Z,21.42
2023-05-08T23:46:39.567Z,22.45
2023-05-08T23:49:07.118Z,22.30
2023-05-08T23:51:34.081Z,21.80
2023-05-08T23:54:01.378Z,21.58
2023-05-08T23:56:29.133Z,21.08
2023-05-08T23:58:56.054Z,22.02
